KVKS/VKS METAR and TAF weather

Enter ICAO airport designator
Station Type Date Time Source
KVKS METAR 2019/06/17 07:35 UTC NOAA

KVKS 170735Z AUTO 16004KT 10SM CLR 21/21 A2992 RMK A01


Station Type Date Time Source
KVKS Decoded METAR 2019/06/17 07:35 UTC NOAA

Vicksburg Municipal, MS, United States (KVKS) 32-14N 090-56W
Jun 17, 2019 - 03:35 AM EDT / 2019.06.17 0735 UTC
Wind: from the SSE (160 degrees) at 5 MPH (4 KT):0
Visibility: 10 mile(s):0
Sky conditions: clear
Temperature: 69 F (21 C)
Dew Point: 69 F (21 C)
Relative Humidity: 100%
Pressure (altimeter): 29.92 in. Hg (1013 hPa)
ob: KVKS 170735Z AUTO 16004KT 10SM CLR 21/21 A2992 RMK A01
cycle: 7

Station Type Date Time Source
KVKS TAF UTC NOAA

Error!

Example: see airport list